Kopaonik, Serbia
Current Conditions -  °F | °C
As of 10:00 PM on Friday 31 Oct 2014 (Local Time) from LYKV Reporting Station
Haze Haze  
Wind Chill: 46°   Ceiling: 2700
Heat Index: 46°   Visibility: 2.5mi
Dew Point: 45°   Wind: 0mph
Humidity: 93%   Direction: NA
Pressure: 30.36"   Gusts: NA
Location:  43.28°N, 20.8°E
Report Text: LYKV 312000Z 00000KT 4000 BR BKN027 08/07 Q1028 NOSIG
Loading
Personal Weather Stations






























Interactive Weather Map
Tropical Storm Tracking
New forecast layout! Learn more

10-Day Weather Forecast

Advertisements
Track Severe Weather on mobile